sensor_id;sensor_type;location;lat;lon;timestamp;pressure;altitude;pressure_sealevel;temperature;humidity
21817;BME280;13247;47.504;7.382;2023-08-30T00:01:36;96755.50;;;14.57;100.00
21817;BME280;13247;47.504;7.382;2023-08-30T00:04:21;96759.72;;;14.59;100.00
21817;BME280;13247;47.504;7.382;2023-08-30T00:07:07;96761.69;;;14.56;100.00
21817;BME280;13247;47.504;7.382;2023-08-30T00:09:51;96761.19;;;14.49;100.00
21817;BME280;13247;47.504;7.382;2023-08-30T00:12:36;96754.03;;;14.51;100.00
21817;BME280;13247;47.504;7.382;2023-08-30T00:15:20;96763.91;;;14.48;100.00
21817;BME280;13247;47.504;7.382;2023-08-30T00:18:05;96773.34;;;14.36;100.00
21817;BME280;13247;47.504;7.382;2023-08-30T00:20:50;96763.91;;;14.48;100.00
21817;BME280;13247;47.504;7.382;2023-08-30T00:23:35;96770.41;;;14.42;100.00
21817;BME280;13247;47.504;7.382;2023-08-30T00:26:19;96777.34;;;14.43;100.00
21817;BME280;13247;47.504;7.382;2023-08-30T00:29:04;96775.06;;;14.53;100.00
21817;BME280;13247;47.504;7.382;2023-08-30T00:31:48;96772.59;;;14.65;100.00
21817;BME280;13247;47.504;7.382;2023-08-30T00:34:33;96770.03;;;14.64;100.00
21817;BME280;13247;47.504;7.382;2023-08-30T00:37:18;96771.75;;;14.65;100.00
21817;BME280;13247;47.504;7.382;2023-08-30T00:40:02;96768.66;;;14.72;100.00
21817;BME280;13247;47.504;7.382;2023-08-30T00:42:47;96767.16;;;14.53;100.00
21817;BME280;13247;47.504;7.382;2023-08-30T00:45:33;96748.94;;;14.48;100.00
21817;BME280;13247;47.504;7.382;2023-08-30T00:48:20;96756.16;;;14.45;100.00
21817;BME280;13247;47.504;7.382;2023-08-30T00:51:05;96769.03;;;14.35;100.00
21817;BME280;13247;47.504;7.382;2023-08-30T00:53:51;96767.25;;;14.36;100.00
21817;BME280;13247;47.504;7.382;2023-08-30T00:56:36;96761.88;;;14.37;100.00
21817;BME280;13247;47.504;7.382;2023-08-30T00:59:22;96758.78;;;14.45;100.00
21817;BME280;13247;47.504;7.382;2023-08-30T01:02:07;96759.50;;;14.48;100.00
21817;BME280;13247;47.504;7.382;2023-08-30T01:04:53;96761.13;;;14.51;100.00
21817;BME280;13247;47.504;7.382;2023-08-30T01:07:37;96752.00;;;14.41;100.00
21817;BME280;13247;47.504;7.382;2023-08-30T01:10:31;96751.22;;;14.39;100.00
21817;BME280;13247;47.504;7.382;2023-08-30T01:13:22;96752.00;;;14.41;100.00
21817;BME280;13247;47.504;7.382;2023-08-30T01:16:07;96745.44;;;14.48;100.00
21817;BME280;13247;47.504;7.382;2023-08-30T01:18:56;96746.13;;;14.51;100.00
21817;BME280;13247;47.504;7.382;2023-08-30T01:21:56;96742.03;;;14.46;100.00
21817;BME280;13247;47.504;7.382;2023-08-30T01:27:42;96736.50;;;14.35;100.00
21817;BME280;13247;47.504;7.382;2023-08-30T01:30:28;96735.84;;;14.31;100.00
21817;BME280;13247;47.504;7.382;2023-08-30T01:33:15;96743.97;;;14.27;100.00
21817;BME280;13247;47.504;7.382;2023-08-30T01:36:02;96736.69;;;14.32;100.00
21817;BME280;13247;47.504;7.382;2023-08-30T01:38:48;96743.00;;;14.29;100.00
21817;BME280;13247;47.504;7.382;2023-08-30T01:41:34;96729.00;;;14.27;100.00
21817;BME280;13247;47.504;7.382;2023-08-30T01:44:19;96730.56;;;14.31;100.00
21817;BME280;13247;47.504;7.382;2023-08-30T01:47:05;96718.81;;;14.21;100.00
21817;BME280;13247;47.504;7.382;2023-08-30T01:49:51;96715.13;;;14.24;100.00
21817;BME280;13247;47.504;7.382;2023-08-30T01:52:36;96714.66;;;14.48;100.00
21817;BME280;13247;47.504;7.382;2023-08-30T01:55:22;96717.34;;;14.47;100.00
21817;BME280;13247;47.504;7.382;2023-08-30T01:58:08;96723.22;;;14.21;100.00
21817;BME280;13247;47.504;7.382;2023-08-30T02:00:53;96735.72;;;14.01;100.00
21817;BME280;13247;47.504;7.382;2023-08-30T02:03:38;96728.56;;;14.03;100.00
21817;BME280;13247;47.504;7.382;2023-08-30T02:06:26;96727.59;;;14.04;100.00
21817;BME280;13247;47.504;7.382;2023-08-30T02:12:24;96719.25;;;14.29;100.00
21817;BME280;13247;47.504;7.382;2023-08-30T02:15:11;96723.81;;;14.10;100.00
21817;BME280;13247;47.504;7.382;2023-08-30T02:17:56;96726.59;;;14.07;100.00
21817;BME280;13247;47.504;7.382;2023-08-30T02:20:41;96720.41;;;14.08;100.00
21817;BME280;13247;47.504;7.382;2023-08-30T02:23:26;96709.00;;;14.23;100.00
21817;BME280;13247;47.504;7.382;2023-08-30T02:26:10;96711.00;;;14.35;100.00
21817;BME280;13247;47.504;7.382;2023-08-30T02:28:55;96707.66;;;14.47;100.00
21817;BME280;13247;47.504;7.382;2023-08-30T02:31:39;96709.28;;;14.50;100.00
21817;BME280;13247;47.504;7.382;2023-08-30T02:34:25;96708.88;;;14.42;100.00
21817;BME280;13247;47.504;7.382;2023-08-30T02:37:09;96703.75;;;14.54;100.00
21817;BME280;13247;47.504;7.382;2023-08-30T02:39:54;96702.28;;;14.64;100.00
21817;BME280;13247;47.504;7.382;2023-08-30T02:42:39;96701.25;;;14.67;100.00
21817;BME280;13247;47.504;7.382;2023-08-30T02:45:23;96713.19;;;14.58;100.00
21817;BME280;13247;47.504;7.382;2023-08-30T02:48:08;96704.50;;;14.56;100.00
21817;BME280;13247;47.504;7.382;2023-08-30T02:50:52;96704.16;;;14.62;100.00
21817;BME280;13247;47.504;7.382;2023-08-30T02:53:37;96696.53;;;14.42;100.00
21817;BME280;13247;47.504;7.382;2023-08-30T02:56:21;96705.88;;;14.16;100.00
21817;BME280;13247;47.504;7.382;2023-08-30T02:59:06;96705.34;;;14.26;100.00
21817;BME280;13247;47.504;7.382;2023-08-30T03:01:51;96706.47;;;14.37;100.00
21817;BME280;13247;47.504;7.382;2023-08-30T03:04:35;96707.75;;;14.46;100.00
21817;BME280;13247;47.504;7.382;2023-08-30T03:07:20;96704.75;;;14.52;100.00
21817;BME280;13247;47.504;7.382;2023-08-30T03:10:05;96696.59;;;14.56;100.00
21817;BME280;13247;47.504;7.382;2023-08-30T03:12:50;96701.25;;;14.51;100.00
21817;BME280;13247;47.504;7.382;2023-08-30T03:15:35;96699.47;;;14.52;100.00
21817;BME280;13247;47.504;7.382;2023-08-30T03:18:20;96695.56;;;14.43;100.00
21817;BME280;13247;47.504;7.382;2023-08-30T03:21:05;96687.06;;;14.23;100.00
21817;BME280;13247;47.504;7.382;2023-08-30T03:23:50;96694.91;;;14.08;100.00
21817;BME280;13247;47.504;7.382;2023-08-30T03:26:34;96690.19;;;14.13;100.00
21817;BME280;13247;47.504;7.382;2023-08-30T03:29:19;96684.78;;;14.32;100.00
21817;BME280;13247;47.504;7.382;2023-08-30T03:32:03;96685.03;;;14.43;100.00
21817;BME280;13247;47.504;7.382;2023-08-30T03:34:49;96682.03;;;14.18;100.00
21817;BME280;13247;47.504;7.382;2023-08-30T03:37:35;96681.53;;;14.11;100.00
21817;BME280;13247;47.504;7.382;2023-08-30T03:40:19;96689.03;;;14.19;100.00
21817;BME280;13247;47.504;7.382;2023-08-30T03:43:04;96692.44;;;14.21;100.00
21817;BME280;13247;47.504;7.382;2023-08-30T03:45:49;96697.50;;;13.93;100.00
21817;BME280;13247;47.504;7.382;2023-08-30T03:48:34;96698.78;;;14.01;100.00
21817;BME280;13247;47.504;7.382;2023-08-30T03:51:18;96702.94;;;13.74;100.00
21817;BME280;13247;47.504;7.382;2023-08-30T03:54:03;96697.53;;;13.60;100.00
21817;BME280;13247;47.504;7.382;2023-08-30T03:56:48;96704.63;;;13.60;100.00
21817;BME280;13247;47.504;7.382;2023-08-30T03:59:32;96698.69;;;13.72;100.00
21817;BME280;13247;47.504;7.382;2023-08-30T04:02:17;96710.06;;;13.72;100.00
21817;BME280;13247;47.504;7.382;2023-08-30T04:05:02;96707.53;;;13.86;100.00
21817;BME280;13247;47.504;7.382;2023-08-30T04:07:48;96702.94;;;13.90;100.00
21817;BME280;13247;47.504;7.382;2023-08-30T04:10:42;96695.03;;;13.90;100.00
21817;BME280;13247;47.504;7.382;2023-08-30T04:13:28;96707.06;;;13.95;100.00
21817;BME280;13247;47.504;7.382;2023-08-30T04:16:12;96705.34;;;13.94;100.00
21817;BME280;13247;47.504;7.382;2023-08-30T04:18:57;96702.84;;;13.76;100.00
21817;BME280;13247;47.504;7.382;2023-08-30T04:21:42;96715.53;;;13.85;100.00
21817;BME280;13247;47.504;7.382;2023-08-30T04:24:26;96703.84;;;13.73;100.00
21817;BME280;13247;47.504;7.382;2023-08-30T04:27:11;96707.34;;;13.74;100.00
21817;BME280;13247;47.504;7.382;2023-08-30T04:29:55;96699.53;;;13.72;100.00
21817;BME280;13247;47.504;7.382;2023-08-30T04:32:40;96703.34;;;13.67;100.00
21817;BME280;13247;47.504;7.382;2023-08-30T04:35:25;96713.34;;;13.60;100.00
21817;BME280;13247;47.504;7.382;2023-08-30T04:38:09;96707.84;;;13.65;100.00
21817;BME280;13247;47.504;7.382;2023-08-30T04:40:58;96712.44;;;13.61;100.00
21817;BME280;13247;47.504;7.382;2023-08-30T04:43:47;96718.59;;;13.45;100.00
21817;BME280;13247;47.504;7.382;2023-08-30T04:46:32;96708.28;;;13.40;100.00
21817;BME280;13247;47.504;7.382;2023-08-30T04:49:17;96706.22;;;13.29;100.00
21817;BME280;13247;47.504;7.382;2023-08-30T04:52:01;96711.78;;;13.41;100.00
21817;BME280;13247;47.504;7.382;2023-08-30T04:54:46;96710.22;;;13.54;100.00
21817;BME280;13247;47.504;7.382;2023-08-30T04:57:30;96709.97;;;13.41;100.00
21817;BME280;13247;47.504;7.382;2023-08-30T05:00:15;96710.72;;;13.27;100.00
21817;BME280;13247;47.504;7.382;2023-08-30T05:03:00;96712.25;;;13.31;100.00
21817;BME280;13247;47.504;7.382;2023-08-30T05:05:48;96717.94;;;13.24;100.00
21817;BME280;13247;47.504;7.382;2023-08-30T05:08:32;96719.25;;;13.32;100.00
21817;BME280;13247;47.504;7.382;2023-08-30T05:11:17;96718.28;;;13.33;100.00
21817;BME280;13247;47.504;7.382;2023-08-30T05:14:01;96721.03;;;13.48;100.00
21817;BME280;13247;47.504;7.382;2023-08-30T05:16:48;96715.75;;;13.65;100.00
21817;BME280;13247;47.504;7.382;2023-08-30T05:19:33;96705.28;;;13.63;100.00
21817;BME280;13247;47.504;7.382;2023-08-30T05:22:18;96715.78;;;13.48;100.00
21817;BME280;13247;47.504;7.382;2023-08-30T05:25:02;96716.88;;;13.44;100.00
21817;BME280;13247;47.504;7.382;2023-08-30T05:27:47;96720.63;;;13.22;100.00
21817;BME280;13247;47.504;7.382;2023-08-30T05:30:32;96719.63;;;13.25;100.00
21817;BME280;13247;47.504;7.382;2023-08-30T05:33:17;96726.44;;;13.29;100.00
21817;BME280;13247;47.504;7.382;2023-08-30T05:36:01;96718.81;;;13.40;100.00
21817;BME280;13247;47.504;7.382;2023-08-30T05:38:46;96719.94;;;13.52;100.00
21817;BME280;13247;47.504;7.382;2023-08-30T05:41:31;96717.63;;;13.46;100.00
21817;BME280;13247;47.504;7.382;2023-08-30T05:44:18;96722.75;;;13.49;100.00
21817;BME280;13247;47.504;7.382;2023-08-30T05:47:03;96721.38;;;13.42;100.00
21817;BME280;13247;47.504;7.382;2023-08-30T05:49:48;96718.25;;;13.51;100.00
21817;BME280;13247;47.504;7.382;2023-08-30T05:52:33;96722.09;;;13.61;100.00
21817;BME280;13247;47.504;7.382;2023-08-30T05:55:18;96710.50;;;13.80;100.00
21817;BME280;13247;47.504;7.382;2023-08-30T05:58:03;96712.84;;;14.02;100.00
21817;BME280;13247;47.504;7.382;2023-08-30T06:00:48;96702.22;;;14.19;100.00
21817;BME280;13247;47.504;7.382;2023-08-30T06:03:32;96713.69;;;14.18;100.00
21817;BME280;13247;47.504;7.382;2023-08-30T06:06:17;96712.66;;;14.21;100.00
21817;BME280;13247;47.504;7.382;2023-08-30T06:09:01;96703.22;;;14.32;100.00
21817;BME280;13247;47.504;7.382;2023-08-30T06:11:46;96704.66;;;14.22;100.00
21817;BME280;13247;47.504;7.382;2023-08-30T06:14:31;96710.28;;;14.47;100.00
21817;BME280;13247;47.504;7.382;2023-08-30T06:17:15;96707.91;;;14.43;100.00
21817;BME280;13247;47.504;7.382;2023-08-30T06:20:01;96710.38;;;14.61;100.00
21817;BME280;13247;47.504;7.382;2023-08-30T06:22:46;96713.69;;;14.49;100.00
21817;BME280;13247;47.504;7.382;2023-08-30T06:25:30;96710.38;;;14.61;100.00
21817;BME280;13247;47.504;7.382;2023-08-30T06:28:14;96714.09;;;14.57;100.00
21817;BME280;13247;47.504;7.382;2023-08-30T06:30:59;96708.53;;;14.77;100.00
21817;BME280;13247;47.504;7.382;2023-08-30T06:33:44;96699.75;;;14.92;100.00
21817;BME280;13247;47.504;7.382;2023-08-30T06:36:28;96703.41;;;14.90;100.00
21817;BME280;13247;47.504;7.382;2023-08-30T06:39:13;96695.38;;;14.91;100.00
21817;BME280;13247;47.504;7.382;2023-08-30T06:41:57;96712.03;;;15.08;100.00
21817;BME280;13247;47.504;7.382;2023-08-30T06:44:42;96715.72;;;15.05;100.00
21817;BME280;13247;47.504;7.382;2023-08-30T06:47:27;96713.69;;;14.94;100.00
21817;BME280;13247;47.504;7.382;2023-08-30T06:50:11;96713.00;;;15.21;100.00
21817;BME280;13247;47.504;7.382;2023-08-30T06:52:56;96705.00;;;15.36;100.00
21817;BME280;13247;47.504;7.382;2023-08-30T06:55:41;96708.88;;;15.31;100.00
21817;BME280;13247;47.504;7.382;2023-08-30T06:58:25;96707.91;;;15.47;100.00
21817;BME280;13247;47.504;7.382;2023-08-30T07:01:10;96703.91;;;15.54;100.00
21817;BME280;13247;47.504;7.382;2023-08-30T07:03:54;96708.75;;;15.62;100.00
21817;BME280;13247;47.504;7.382;2023-08-30T07:06:39;96699.59;;;15.82;100.00
21817;BME280;13247;47.504;7.382;2023-08-30T07:09:23;96703.94;;;15.83;100.00
21817;BME280;13247;47.504;7.382;2023-08-30T07:12:13;96707.59;;;15.80;100.00
21817;BME280;13247;47.504;7.382;2023-08-30T07:14:58;96706.13;;;15.90;100.00
21817;BME280;13247;47.504;7.382;2023-08-30T07:17:42;96705.34;;;16.02;100.00
21817;BME280;13247;47.504;7.382;2023-08-30T07:20:27;96696.84;;;15.97;100.00
21817;BME280;13247;47.504;7.382;2023-08-30T07:23:12;96700.38;;;16.24;100.00
21817;BME280;13247;47.504;7.382;2023-08-30T07:25:57;96700.84;;;16.31;100.00
21817;BME280;13247;47.504;7.382;2023-08-30T07:28:42;96699.28;;;16.41;100.00
21817;BME280;13247;47.504;7.382;2023-08-30T07:31:27;96697.69;;;16.53;100.00
21817;BME280;13247;47.504;7.382;2023-08-30T07:34:11;96694.34;;;16.63;100.00
21817;BME280;13247;47.504;7.382;2023-08-30T07:36:57;96692.91;;;16.72;100.00
21817;BME280;13247;47.504;7.382;2023-08-30T07:39:41;96686.28;;;16.65;100.00
21817;BME280;13247;47.504;7.382;2023-08-30T07:42:26;96692.25;;;16.68;100.00
21817;BME280;13247;47.504;7.382;2023-08-30T07:45:10;96695.16;;;16.90;100.00
21817;BME280;13247;47.504;7.382;2023-08-30T07:47:55;96699.41;;;16.93;100.00
21817;BME280;13247;47.504;7.382;2023-08-30T07:50:39;96702.66;;;17.10;100.00
21817;BME280;13247;47.504;7.382;2023-08-30T07:53:24;96703.59;;;17.22;100.00
21817;BME280;13247;47.504;7.382;2023-08-30T07:56:09;96699.47;;;17.18;100.00
21817;BME280;13247;47.504;7.382;2023-08-30T07:58:54;96702.56;;;17.37;100.00
21817;BME280;13247;47.504;7.382;2023-08-30T08:01:39;96702.88;;;17.45;100.00
21817;BME280;13247;47.504;7.382;2023-08-30T08:04:23;96697.31;;;17.50;100.00
21817;BME280;13247;47.504;7.382;2023-08-30T08:07:08;96697.47;;;17.47;100.00
21817;BME280;13247;47.504;7.382;2023-08-30T08:09:52;96696.41;;;17.49;100.00
21817;BME280;13247;47.504;7.382;2023-08-30T08:12:37;96692.19;;;17.59;100.00
21817;BME280;13247;47.504;7.382;2023-08-30T08:15:22;96710.75;;;17.59;100.00
21817;BME280;13247;47.504;7.382;2023-08-30T08:18:06;96703.66;;;17.85;100.00
21817;BME280;13247;47.504;7.382;2023-08-30T08:20:51;96701.75;;;17.74;100.00
21817;BME280;13247;47.504;7.382;2023-08-30T08:23:35;96701.22;;;17.94;100.00
21817;BME280;13247;47.504;7.382;2023-08-30T08:26:20;96698.53;;;18.07;100.00
21817;BME280;13247;47.504;7.382;2023-08-30T08:29:04;96702.56;;;18.13;100.00
21817;BME280;13247;47.504;7.382;2023-08-30T08:31:49;96709.19;;;17.94;100.00
21817;BME280;13247;47.504;7.382;2023-08-30T08:34:34;96707.69;;;17.90;100.00
21817;BME280;13247;47.504;7.382;2023-08-30T08:37:18;96706.19;;;18.12;100.00
21817;BME280;13247;47.504;7.382;2023-08-30T08:40:03;96702.09;;;18.19;100.00
21817;BME280;13247;47.504;7.382;2023-08-30T08:42:53;96699.31;;;18.33;100.00
21817;BME280;13247;47.504;7.382;2023-08-30T08:45:39;96701.84;;;18.47;100.00
21817;BME280;13247;47.504;7.382;2023-08-30T08:48:25;96704.81;;;18.42;100.00
21817;BME280;13247;47.504;7.382;2023-08-30T08:51:13;96699.09;;;18.36;100.00
21817;BME280;13247;47.504;7.382;2023-08-30T08:54:02;96703.94;;;18.42;100.00
21817;BME280;13247;47.504;7.382;2023-08-30T08:56:48;96703.94;;;18.54;100.00
21817;BME280;13247;47.504;7.382;2023-08-30T08:59:33;96714.16;;;18.60;100.00
21817;BME280;13247;47.504;7.382;2023-08-30T09:02:18;96708.53;;;18.76;100.00
21817;BME280;13247;47.504;7.382;2023-08-30T09:05:03;96696.97;;;18.77;100.00
21817;BME280;13247;47.504;7.382;2023-08-30T09:07:50;96701.25;;;18.31;100.00
21817;BME280;13247;47.504;7.382;2023-08-30T09:10:38;96707.97;;;18.60;100.00
21817;BME280;13247;47.504;7.382;2023-08-30T09:13:23;96708.25;;;18.68;100.00
21817;BME280;13247;47.504;7.382;2023-08-30T09:16:15;96724.78;;;18.60;100.00
21817;BME280;13247;47.504;7.382;2023-08-30T09:19:01;96718.81;;;18.57;100.00
21817;BME280;13247;47.504;7.382;2023-08-30T09:21:54;96716.22;;;18.68;100.00
21817;BME280;13247;47.504;7.382;2023-08-30T09:24:40;96718.81;;;18.57;100.00
21817;BME280;13247;47.504;7.382;2023-08-30T09:27:32;96720.81;;;18.66;100.00
21817;BME280;13247;47.504;7.382;2023-08-30T09:30:24;96718.66;;;18.35;100.00
21817;BME280;13247;47.504;7.382;2023-08-30T09:33:09;96715.03;;;18.36;100.00
21817;BME280;13247;47.504;7.382;2023-08-30T09:35:54;96717.75;;;18.83;100.00
21817;BME280;13247;47.504;7.382;2023-08-30T09:38:39;96708.72;;;19.20;100.00
21817;BME280;13247;47.504;7.382;2023-08-30T09:41:25;96717.50;;;18.86;100.00
21817;BME280;13247;47.504;7.382;2023-08-30T09:44:14;96711.13;;;18.89;100.00
21817;BME280;13247;47.504;7.382;2023-08-30T09:46:59;96717.63;;;18.85;100.00
21817;BME280;13247;47.504;7.382;2023-08-30T09:49:45;96715.69;;;19.10;100.00
21817;BME280;13247;47.504;7.382;2023-08-30T09:52:30;96713.44;;;18.69;100.00
21817;BME280;13247;47.504;7.382;2023-08-30T09:55:16;96716.63;;;18.74;100.00
21817;BME280;13247;47.504;7.382;2023-08-30T09:58:03;96710.41;;;18.87;100.00
21817;BME280;13247;47.504;7.382;2023-08-30T10:00:50;96721.47;;;19.04;100.00
21817;BME280;13247;47.504;7.382;2023-08-30T10:03:36;96715.03;;;19.30;100.00
21817;BME280;13247;47.504;7.382;2023-08-30T10:06:21;96708.56;;;19.34;100.00
21817;BME280;13247;47.504;7.382;2023-08-30T10:09:08;96707.31;;;19.73;100.00
21817;BME280;13247;47.504;7.382;2023-08-30T10:11:53;96708.59;;;19.45;100.00
21817;BME280;13247;47.504;7.382;2023-08-30T10:14:38;96701.13;;;19.73;100.00
21817;BME280;13247;47.504;7.382;2023-08-30T10:17:31;96705.63;;;19.83;100.00
21817;BME280;13247;47.504;7.382;2023-08-30T10:20:16;96699.47;;;19.83;100.00
21817;BME280;13247;47.504;7.382;2023-08-30T10:23:01;96707.63;;;19.46;100.00
21817;BME280;13247;47.504;7.382;2023-08-30T10:25:49;96713.28;;;19.42;100.00
21817;BME280;13247;47.504;7.382;2023-08-30T10:28:36;96704.47;;;19.41;100.00
21817;BME280;13247;47.504;7.382;2023-08-30T10:31:21;96705.25;;;19.31;100.00
21817;BME280;13247;47.504;7.382;2023-08-30T10:34:14;96704.53;;;18.94;100.00
21817;BME280;13247;47.504;7.382;2023-08-30T10:37:01;96709.84;;;19.29;100.00
21817;BME280;13247;47.504;7.382;2023-08-30T10:39:48;96697.94;;;19.11;100.00
21817;BME280;13247;47.504;7.382;2023-08-30T10:42:34;96697.63;;;19.26;100.00
21817;BME280;13247;47.504;7.382;2023-08-30T10:45:23;96699.31;;;19.27;100.00
21817;BME280;13247;47.504;7.382;2023-08-30T10:48:08;96688.56;;;19.75;100.00
21817;BME280;13247;47.504;7.382;2023-08-30T10:50:53;96691.97;;;19.77;100.00
21817;BME280;13247;47.504;7.382;2023-08-30T10:53:38;96688.34;;;20.00;100.00
21817;BME280;13247;47.504;7.382;2023-08-30T10:56:28;96677.69;;;20.22;100.00
21817;BME280;13247;47.504;7.382;2023-08-30T10:59:21;96674.31;;;20.20;100.00
21817;BME280;13247;47.504;7.382;2023-08-30T11:02:06;96664.75;;;20.71;100.00
21817;BME280;13247;47.504;7.382;2023-08-30T11:04:52;96673.59;;;20.29;100.00
21817;BME280;13247;47.504;7.382;2023-08-30T11:07:37;96674.22;;;20.64;100.00
21817;BME280;13247;47.504;7.382;2023-08-30T11:10:21;96676.69;;;20.45;100.00
21817;BME280;13247;47.504;7.382;2023-08-30T11:13:06;96683.25;;;20.41;100.00
21817;BME280;13247;47.504;7.382;2023-08-30T11:15:51;96675.81;;;20.67;100.00
21817;BME280;13247;47.504;7.382;2023-08-30T11:18:39;96670.09;;;20.71;100.00
21817;BME280;13247;47.504;7.382;2023-08-30T11:21:25;96675.16;;;20.74;96.46
21817;BME280;13247;47.504;7.382;2023-08-30T11:24:10;96673.19;;;20.87;85.75
21817;BME280;13247;47.504;7.382;2023-08-30T11:26:56;96674.41;;;19.96;95.63
21817;BME280;13247;47.504;7.382;2023-08-30T11:29:40;96654.78;;;20.53;99.34
21817;BME280;13247;47.504;7.382;2023-08-30T11:32:25;96660.38;;;20.05;100.00
21817;BME280;13247;47.504;7.382;2023-08-30T11:35:10;96661.19;;;20.61;96.76
21817;BME280;13247;47.504;7.382;2023-08-30T11:37:55;96671.03;;;20.81;95.10
21817;BME280;13247;47.504;7.382;2023-08-30T11:40:40;96672.44;;;20.54;99.45
21817;BME280;13247;47.504;7.382;2023-08-30T11:43:26;96669.28;;;21.02;100.00
21817;BME280;13247;47.504;7.382;2023-08-30T11:46:11;96666.41;;;20.83;92.79
21817;BME280;13247;47.504;7.382;2023-08-30T11:48:57;96657.00;;;21.32;99.00
21817;BME280;13247;47.504;7.382;2023-08-30T11:51:42;96659.13;;;21.17;93.78
21817;BME280;13247;47.504;7.382;2023-08-30T11:54:27;96657.25;;;21.08;97.96
21817;BME280;13247;47.504;7.382;2023-08-30T11:57:12;96653.09;;;21.36;97.31
21817;BME280;13247;47.504;7.382;2023-08-30T12:00:10;96652.38;;;21.34;95.91
21817;BME280;13247;47.504;7.382;2023-08-30T12:02:55;96646.59;;;21.29;98.39
21817;BME280;13247;47.504;7.382;2023-08-30T12:05:50;96633.25;;;22.00;95.36
21817;BME280;13247;47.504;7.382;2023-08-30T12:08:35;96644.78;;;21.50;96.06
21817;BME280;13247;47.504;7.382;2023-08-30T12:11:20;96645.03;;;20.94;86.13
21817;BME280;13247;47.504;7.382;2023-08-30T12:14:05;96641.47;;;21.37;86.42
21817;BME280;13247;47.504;7.382;2023-08-30T12:16:49;96636.91;;;21.78;83.42
21817;BME280;13247;47.504;7.382;2023-08-30T12:19:34;96642.00;;;21.81;80.37
21817;BME280;13247;47.504;7.382;2023-08-30T12:22:19;96633.75;;;21.64;84.76
21817;BME280;13247;47.504;7.382;2023-08-30T12:25:16;96643.34;;;20.93;92.90
21817;BME280;13247;47.504;7.382;2023-08-30T12:28:01;96646.31;;;21.11;88.03
21817;BME280;13247;47.504;7.382;2023-08-30T12:30:48;96644.78;;;21.50;91.41
21817;BME280;13247;47.504;7.382;2023-08-30T12:33:34;96649.38;;;21.27;81.71
21817;BME280;13247;47.504;7.382;2023-08-30T12:36:19;96652.03;;;21.06;80.87
21817;BME280;13247;47.504;7.382;2023-08-30T12:39:04;96651.47;;;20.92;85.65
21817;BME280;13247;47.504;7.382;2023-08-30T12:41:49;96656.13;;;20.79;72.80
21817;BME280;13247;47.504;7.382;2023-08-30T12:44:33;96657.84;;;20.26;80.35
21817;BME280;13247;47.504;7.382;2023-08-30T12:47:18;96649.81;;;20.48;85.76
21817;BME280;13247;47.504;7.382;2023-08-30T12:50:02;96646.16;;;20.60;83.77
21817;BME280;13247;47.504;7.382;2023-08-30T12:52:47;96642.47;;;21.25;86.05
21817;BME280;13247;47.504;7.382;2023-08-30T12:55:32;96640.47;;;21.38;84.47
21817;BME280;13247;47.504;7.382;2023-08-30T12:58:16;96642.59;;;21.44;75.35
21817;BME280;13247;47.504;7.382;2023-08-30T13:01:01;96640.44;;;21.79;79.28
21817;BME280;13247;47.504;7.382;2023-08-30T13:03:45;96654.31;;;21.52;71.92
21817;BME280;13247;47.504;7.382;2023-08-30T13:06:30;96639.88;;;21.55;77.57
21817;BME280;13247;47.504;7.382;2023-08-30T13:09:16;96642.72;;;21.63;77.51
21817;BME280;13247;47.504;7.382;2023-08-30T13:12:00;96635.47;;;21.95;77.46
21817;BME280;13247;47.504;7.382;2023-08-30T13:14:45;96628.72;;;22.40;77.65
21817;BME280;13247;47.504;7.382;2023-08-30T13:17:29;96636.91;;;21.78;77.31
21817;BME280;13247;47.504;7.382;2023-08-30T13:20:14;96634.53;;;21.55;79.87
21817;BME280;13247;47.504;7.382;2023-08-30T13:22:58;96630.72;;;21.27;84.33
21817;BME280;13247;47.504;7.382;2023-08-30T13:25:43;96622.72;;;21.27;87.72
21817;BME280;13247;47.504;7.382;2023-08-30T13:28:27;96624.03;;;21.63;83.17
21817;BME280;13247;47.504;7.382;2023-08-30T13:31:12;96623.06;;;21.84;78.67
21817;BME280;13247;47.504;7.382;2023-08-30T13:33:56;96616.28;;;22.11;72.49
21817;BME280;13247;47.504;7.382;2023-08-30T13:36:41;96619.38;;;21.55;68.20
21817;BME280;13247;47.504;7.382;2023-08-30T13:39:25;96610.81;;;21.82;71.93
21817;BME280;13247;47.504;7.382;2023-08-30T13:42:10;96609.38;;;22.08;66.29
21817;BME280;13247;47.504;7.382;2023-08-30T13:44:55;96618.06;;;21.80;66.25
21817;BME280;13247;47.504;7.382;2023-08-30T13:47:39;96612.81;;;21.90;65.53
21817;BME280;13247;47.504;7.382;2023-08-30T13:50:24;96622.03;;;21.55;69.68
21817;BME280;13247;47.504;7.382;2023-08-30T13:53:10;96621.22;;;21.85;68.21
21817;BME280;13247;47.504;7.382;2023-08-30T13:55:55;96614.44;;;21.81;69.34
21817;BME280;13247;47.504;7.382;2023-08-30T13:58:39;96620.66;;;22.31;73.58
21817;BME280;13247;47.504;7.382;2023-08-30T14:01:24;96616.34;;;22.39;71.63
21817;BME280;13247;47.504;7.382;2023-08-30T14:04:09;96615.78;;;21.66;75.76
21817;BME280;13247;47.504;7.382;2023-08-30T14:06:54;96614.06;;;22.25;66.58
21817;BME280;13247;47.504;7.382;2023-08-30T14:09:38;96610.22;;;22.68;59.90
21817;BME280;13247;47.504;7.382;2023-08-30T14:12:23;96623.78;;;22.36;60.09
21817;BME280;13247;47.504;7.382;2023-08-30T14:15:08;96614.97;;;22.64;64.51
21817;BME280;13247;47.504;7.382;2023-08-30T14:17:53;96607.69;;;22.76;68.33
21817;BME280;13247;47.504;7.382;2023-08-30T14:20:37;96626.91;;;21.71;66.64
21817;BME280;13247;47.504;7.382;2023-08-30T14:23:22;96626.91;;;21.50;67.17
21817;BME280;13247;47.504;7.382;2023-08-30T14:26:07;96625.66;;;21.75;68.76
21817;BME280;13247;47.504;7.382;2023-08-30T14:28:57;96620.50;;;22.13;75.73
21817;BME280;13247;47.504;7.382;2023-08-30T14:31:41;96628.84;;;22.29;67.93
21817;BME280;13247;47.504;7.382;2023-08-30T14:34:27;96627.22;;;22.08;68.45